createdAt,value
2022-10-12T00:01:07.923Z,78.06
2022-10-12T00:03:37.505Z,78.38
2022-10-12T00:06:07.673Z,78.67
2022-10-12T00:08:38.739Z,78.40
2022-10-12T00:11:08.043Z,79.03
2022-10-12T00:13:36.222Z,80.27
2022-10-12T00:16:04.658Z,79.20
2022-10-12T00:18:32.861Z,80.43
2022-10-12T00:21:07.881Z,79.85
2022-10-12T00:23:37.087Z,80.41
2022-10-12T00:26:06.542Z,80.89
2022-10-12T00:28:38.079Z,80.13
2022-10-12T00:31:09.286Z,79.30
2022-10-12T00:33:38.660Z,80.71
2022-10-12T00:36:16.178Z,80.21
2022-10-12T00:38:44.812Z,80.33
2022-10-12T00:41:13.754Z,79.97
2022-10-12T00:43:43.864Z,80.11
2022-10-12T00:46:15.633Z,80.02
2022-10-12T00:48:44.378Z,80.45
2022-10-12T00:51:14.363Z,80.35
2022-10-12T00:53:44.800Z,80.48
2022-10-12T00:56:16.534Z,79.20
2022-10-12T00:58:44.776Z,79.67
2022-10-12T01:01:12.929Z,81.08
2022-10-12T01:03:41.302Z,80.07
2022-10-12T01:06:09.372Z,79.24
2022-10-12T01:08:39.446Z,80.05
2022-10-12T01:11:07.662Z,79.91
2022-10-12T01:13:35.712Z,78.83
2022-10-12T01:16:08.793Z,78.67
2022-10-12T01:18:43.180Z,79.10
2022-10-12T01:21:16.694Z,79.20
2022-10-12T01:24:06.403Z,77.77
2022-10-12T01:27:13.243Z,79.31
2022-10-12T01:30:01.680Z,79.79
2022-10-12T01:32:32.930Z,78.65
2022-10-12T01:35:04.177Z,77.33
2022-10-12T01:37:39.638Z,77.77
2022-10-12T01:40:11.827Z,77.08
2022-10-12T01:42:41.810Z,78.14
2022-10-12T01:45:13.085Z,78.20
2022-10-12T01:47:42.786Z,77.61
2022-10-12T01:50:13.519Z,79.00
2022-10-12T01:52:46.997Z,78.03
2022-10-12T01:55:30.510Z,78.27
2022-10-12T01:58:14.947Z,77.75
2022-10-12T02:00:49.248Z,79.06
2022-10-12T02:03:21.654Z,79.19
2022-10-12T02:05:52.097Z,78.24
2022-10-12T02:08:24.359Z,77.95
2022-10-12T02:10:56.515Z,77.93
2022-10-12T02:13:26.536Z,77.74
2022-10-12T02:15:56.268Z,78.21
2022-10-12T02:18:25.727Z,78.44
2022-10-12T02:20:55.422Z,78.05
2022-10-12T02:23:25.021Z,78.80
2022-10-12T02:25:54.599Z,79.59
2022-10-12T02:28:24.754Z,79.30
2022-10-12T02:30:58.893Z,78.55
2022-10-12T02:33:30.073Z,78.49
2022-10-12T02:36:00.246Z,79.22
2022-10-12T02:38:31.845Z,79.17
2022-10-12T02:41:02.505Z,79.89
2022-10-12T02:43:36.091Z,78.96
2022-10-12T02:46:06.426Z,79.28
2022-10-12T02:48:35.506Z,77.62
2022-10-12T02:51:04.838Z,78.23
2022-10-12T02:53:32.931Z,78.58
2022-10-12T02:56:03.814Z,78.24
2022-10-12T02:58:31.881Z,78.10
2022-10-12T03:01:00.159Z,76.83
2022-10-12T03:03:29.834Z,76.19
2022-10-12T03:05:57.947Z,75.88
2022-10-12T03:08:26.010Z,76.15
2022-10-12T03:10:54.123Z,76.42
2022-10-12T03:13:22.175Z,75.80
2022-10-12T03:15:50.232Z,75.75
2022-10-12T03:18:19.094Z,76.08
2022-10-12T03:20:50.452Z,75.84
2022-10-12T03:23:18.469Z,76.21
2022-10-12T03:25:46.561Z,75.20
2022-10-12T03:28:14.690Z,75.56
2022-10-12T03:30:43.696Z,74.16
2022-10-12T03:33:11.765Z,74.69
2022-10-12T03:35:39.831Z,74.06
2022-10-12T03:38:09.219Z,74.56
2022-10-12T03:40:37.272Z,73.68
2022-10-12T03:43:05.295Z,73.93
2022-10-12T03:45:33.481Z,74.00
2022-10-12T03:48:04.933Z,73.19
2022-10-12T03:50:34.947Z,73.74
2022-10-12T03:53:03.249Z,74.40
2022-10-12T03:55:32.895Z,74.06
2022-10-12T03:58:01.027Z,73.79
2022-10-12T04:00:29.259Z,73.66
2022-10-12T04:02:57.295Z,73.13
2022-10-12T04:05:25.357Z,73.52
2022-10-12T04:07:53.470Z,73.22
2022-10-12T04:10:21.568Z,74.16
2022-10-12T04:12:50.984Z,72.79
2022-10-12T04:15:19.591Z,73.39
2022-10-12T04:17:47.803Z,73.88
2022-10-12T04:20:15.879Z,73.90
2022-10-12T04:22:43.944Z,72.86
2022-10-12T04:25:12.818Z,73.63
2022-10-12T04:27:41.236Z,72.54
2022-10-12T04:30:12.703Z,72.82
2022-10-12T04:32:40.781Z,72.67
2022-10-12T04:35:09.203Z,72.33
2022-10-12T04:37:37.519Z,72.12
2022-10-12T04:40:06.755Z,71.10
2022-10-12T04:42:34.804Z,71.84
2022-10-12T04:45:02.879Z,72.51
2022-10-12T04:47:32.344Z,73.05
2022-10-12T04:50:00.408Z,73.10
2022-10-12T04:52:28.778Z,73.37
2022-10-12T04:54:56.794Z,73.74
2022-10-12T04:57:24.938Z,73.60
2022-10-12T04:59:52.972Z,74.94
2022-10-12T05:02:21.043Z,74.13
2022-10-12T05:04:50.454Z,75.11
2022-10-12T05:07:18.685Z,75.79
2022-10-12T05:09:46.715Z,76.27
2022-10-12T05:12:14.874Z,75.08
2022-10-12T05:14:44.290Z,74.82
2022-10-12T05:17:12.696Z,75.07
2022-10-12T05:19:40.721Z,74.92
2022-10-12T05:22:10.138Z,74.11
2022-10-12T05:24:38.381Z,74.70
2022-10-12T05:27:06.460Z,74.50
2022-10-12T05:29:34.560Z,74.93
2022-10-12T05:32:02.649Z,74.42
2022-10-12T05:34:30.801Z,75.31
2022-10-12T05:36:59.358Z,75.23
2022-10-12T05:39:28.881Z,75.53
2022-10-12T05:41:56.943Z,75.22
2022-10-12T05:44:24.980Z,73.47
2022-10-12T05:46:53.173Z,71.65
2022-10-12T05:49:21.264Z,71.47
2022-10-12T05:51:49.384Z,71.29
2022-10-12T05:54:17.605Z,70.25
2022-10-12T05:56:47.124Z,70.12
2022-10-12T05:59:15.304Z,70.92
2022-10-12T06:01:43.489Z,70.52
2022-10-12T06:04:13.006Z,70.59
2022-10-12T06:06:41.309Z,70.71
2022-10-12T06:09:09.486Z,70.19
2022-10-12T06:11:37.534Z,70.36
2022-10-12T06:14:07.097Z,69.68
2022-10-12T06:16:35.183Z,69.44
2022-10-12T06:19:03.529Z,69.90
2022-10-12T06:21:33.960Z,68.81
2022-10-12T06:24:02.577Z,68.71
2022-10-12T06:26:30.774Z,68.74
2022-10-12T06:29:00.759Z,68.17
2022-10-12T06:31:30.579Z,68.21
2022-10-12T06:33:58.806Z,68.54
2022-10-12T06:36:27.159Z,68.46
2022-10-12T06:38:55.300Z,67.95
2022-10-12T06:41:25.809Z,68.54
2022-10-12T06:43:53.894Z,68.06
2022-10-12T06:46:22.045Z,67.24
2022-10-12T06:48:51.546Z,66.87
2022-10-12T06:51:19.621Z,67.87
2022-10-12T06:53:47.675Z,67.36
2022-10-12T06:56:15.786Z,66.50
2022-10-12T06:58:43.892Z,66.12
2022-10-12T07:01:12.039Z,65.98
2022-10-12T07:03:40.197Z,65.23
2022-10-12T07:06:12.179Z,64.44
2022-10-12T07:08:41.210Z,64.74
2022-10-12T07:11:11.117Z,64.48
2022-10-12T07:13:39.448Z,64.24
2022-10-12T07:16:08.144Z,63.88
2022-10-12T07:18:36.615Z,63.57
2022-10-12T07:21:04.972Z,62.69
2022-10-12T07:23:35.361Z,63.56
2022-10-12T07:26:03.395Z,62.91
2022-10-12T07:28:31.547Z,63.41
2022-10-12T07:31:03.205Z,63.11
2022-10-12T07:33:35.192Z,63.45
2022-10-12T07:36:13.871Z,62.64
2022-10-12T07:38:45.880Z,62.66
2022-10-12T07:41:14.592Z,61.88
2022-10-12T07:43:43.182Z,62.09
2022-10-12T07:46:11.586Z,63.03
2022-10-12T07:48:45.684Z,62.52
2022-10-12T07:51:18.359Z,62.42
2022-10-12T07:53:48.013Z,61.58
2022-10-12T07:56:16.302Z,61.40
2022-10-12T07:58:44.857Z,59.92
2022-10-12T08:01:13.032Z,60.54
2022-10-12T08:03:41.208Z,60.47
2022-10-12T08:06:10.661Z,61.29
2022-10-12T08:08:38.970Z,61.39
2022-10-12T08:11:08.883Z,61.53
2022-10-12T08:13:37.825Z,61.39
2022-10-12T08:16:07.436Z,60.75
2022-10-12T08:18:35.650Z,61.75
2022-10-12T08:21:05.514Z,61.79
2022-10-12T08:23:33.611Z,62.25
2022-10-12T08:26:01.696Z,62.13
2022-10-12T08:28:31.287Z,61.00
2022-10-12T08:30:59.671Z,60.51
2022-10-12T08:33:30.387Z,61.43
2022-10-12T08:35:58.452Z,62.04
2022-10-12T08:38:26.613Z,61.57
2022-10-12T08:40:59.105Z,61.97
2022-10-12T08:43:37.577Z,62.35
2022-10-12T08:46:06.002Z,61.25
2022-10-12T08:48:37.104Z,61.69
2022-10-12T08:51:09.386Z,62.23
2022-10-12T08:53:52.629Z,61.56
2022-10-12T08:56:21.354Z,61.56
2022-10-12T08:58:52.180Z,61.04
2022-10-12T09:01:26.966Z,61.08
2022-10-12T09:04:10.083Z,60.60
2022-10-12T09:06:42.049Z,61.08
2022-10-12T09:09:24.733Z,60.19
2022-10-12T09:12:05.233Z,59.21
2022-10-12T09:14:36.991Z,58.75
2022-10-12T09:17:23.379Z,58.96
2022-10-12T09:19:57.360Z,59.66
2022-10-12T09:22:25.514Z,59.43
2022-10-12T09:24:53.575Z,58.91
2022-10-12T09:27:22.974Z,58.79
2022-10-12T09:29:57.640Z,58.77
2022-10-12T09:32:37.048Z,57.81
2022-10-12T09:35:05.830Z,58.62
2022-10-12T09:37:34.813Z,58.29
2022-10-12T09:40:03.994Z,57.81
2022-10-12T09:42:33.506Z,57.03
2022-10-12T09:45:14.365Z,57.27
2022-10-12T09:47:42.709Z,57.45
2022-10-12T09:50:10.818Z,57.78
2022-10-12T09:52:44.251Z,57.23
2022-10-12T09:55:24.841Z,57.12
2022-10-12T09:57:55.686Z,57.86
2022-10-12T10:00:28.134Z,56.86
2022-10-12T10:02:56.987Z,56.34
2022-10-12T10:05:27.558Z,56.43
2022-10-12T10:08:15.973Z,55.51
2022-10-12T10:10:49.228Z,56.09
2022-10-12T10:13:17.407Z,55.95
2022-10-12T10:15:50.183Z,55.79
2022-10-12T10:18:23.520Z,55.67
2022-10-12T10:20:53.119Z,55.52
2022-10-12T10:23:27.083Z,55.79
2022-10-12T10:25:58.340Z,55.65
2022-10-12T10:28:30.604Z,55.96
2022-10-12T10:31:03.037Z,55.65
2022-10-12T10:33:33.784Z,55.29
2022-10-12T10:36:05.305Z,55.37
2022-10-12T10:38:46.831Z,54.89
2022-10-12T10:41:18.423Z,54.62
2022-10-12T10:43:48.560Z,54.65
2022-10-12T10:46:26.560Z,54.83
2022-10-12T10:48:58.747Z,55.38
2022-10-12T10:51:43.028Z,54.12
2022-10-12T10:54:16.992Z,54.23
2022-10-12T10:56:47.730Z,53.66
2022-10-12T10:59:28.990Z,53.78
2022-10-12T11:02:03.075Z,54.56
2022-10-12T11:04:36.258Z,54.61
2022-10-12T11:07:11.721Z,53.59
2022-10-12T11:09:42.864Z,53.87
2022-10-12T11:12:17.797Z,53.45
2022-10-12T11:14:47.490Z,52.88
2022-10-12T11:17:21.404Z,53.31
2022-10-12T11:19:53.230Z,53.67
2022-10-12T11:22:25.004Z,52.72
2022-10-12T11:24:56.084Z,52.78
2022-10-12T11:27:28.688Z,53.96
2022-10-12T11:30:09.442Z,52.97
2022-10-12T11:32:42.839Z,53.16
2022-10-12T11:35:17.304Z,53.41
2022-10-12T11:37:56.345Z,53.62
2022-10-12T11:40:55.482Z,52.74
2022-10-12T11:43:19.661Z,53.23
2022-10-12T11:45:49.565Z,52.83
2022-10-12T11:48:26.990Z,52.75
2022-10-12T11:50:59.973Z,52.63
2022-10-12T11:53:36.447Z,52.71
2022-10-12T11:56:09.707Z,53.78
2022-10-12T11:58:59.938Z,53.04
2022-10-12T12:01:46.585Z,53.04
2022-10-12T12:04:44.363Z,52.36
2022-10-12T12:07:44.988Z,51.86
2022-10-12T12:10:44.437Z,51.89
2022-10-12T12:13:22.772Z,51.63
2022-10-12T12:16:31.882Z,51.69
2022-10-12T12:19:37.902Z,51.52
2022-10-12T12:22:20.226Z,50.36
2022-10-12T12:25:00.292Z,48.97
2022-10-12T12:27:34.867Z,48.95
2022-10-12T12:30:07.116Z,48.76
2022-10-12T12:32:45.104Z,48.28
2022-10-12T12:35:23.805Z,49.13
2022-10-12T12:38:03.051Z,49.53
2022-10-12T12:40:31.289Z,50.10
2022-10-12T12:43:22.401Z,49.82
2022-10-12T12:45:58.002Z,50.35
2022-10-12T12:49:00.001Z,50.52
2022-10-12T12:51:38.051Z,50.61
2022-10-12T12:54:08.228Z,51.18
2022-10-12T12:56:42.460Z,51.25
2022-10-12T12:59:23.334Z,50.88
2022-10-12T13:02:06.988Z,51.46
2022-10-12T13:04:51.812Z,51.45
2022-10-12T13:07:37.069Z,51.82
2022-10-12T13:10:14.775Z,50.81
2022-10-12T13:13:03.800Z,50.74
2022-10-12T13:15:45.077Z,50.62
2022-10-12T13:18:47.169Z,51.70
2022-10-12T13:21:19.330Z,51.79
2022-10-12T13:23:50.743Z,52.29
2022-10-12T13:26:24.539Z,52.26
2022-10-12T13:28:54.056Z,52.63
2022-10-12T13:31:26.667Z,52.58
2022-10-12T13:34:00.173Z,52.80
2022-10-12T13:36:30.262Z,52.54
2022-10-12T13:39:09.426Z,52.27
2022-10-12T13:41:38.376Z,52.46
2022-10-12T13:44:07.356Z,51.99
2022-10-12T13:46:38.479Z,51.74
2022-10-12T13:49:17.443Z,52.36
2022-10-12T13:51:47.824Z,52.65
2022-10-12T13:54:23.053Z,52.92
2022-10-12T13:56:55.915Z,53.43
2022-10-12T13:59:25.957Z,53.51
2022-10-12T14:01:57.289Z,53.72
2022-10-12T14:04:29.847Z,53.88
2022-10-12T14:07:04.131Z,54.32
2022-10-12T14:09:40.467Z,54.24
2022-10-12T14:12:10.104Z,54.29
2022-10-12T14:14:39.214Z,54.37
2022-10-12T14:17:09.098Z,54.71
2022-10-12T14:19:45.100Z,53.57
2022-10-12T14:22:20.535Z,54.47
2022-10-12T14:24:50.816Z,55.01
2022-10-12T14:27:24.892Z,55.45
2022-10-12T14:29:55.419Z,55.79
2022-10-12T14:32:42.191Z,55.89
2022-10-12T14:35:22.042Z,56.13
2022-10-12T14:37:51.838Z,56.85
2022-10-12T14:40:40.996Z,57.02
2022-10-12T14:43:24.346Z,57.30
2022-10-12T14:45:53.357Z,57.54
2022-10-12T14:48:23.772Z,57.51
2022-10-12T14:50:52.221Z,57.93
2022-10-12T14:53:22.536Z,58.14
2022-10-12T14:55:54.847Z,58.25
2022-10-12T14:58:24.469Z,58.23
2022-10-12T15:00:52.613Z,58.09
2022-10-12T15:03:21.897Z,57.96
2022-10-12T15:05:52.355Z,58.44
2022-10-12T15:08:20.439Z,58.74
2022-10-12T15:10:53.008Z,58.47
2022-10-12T15:13:21.094Z,58.79
2022-10-12T15:15:52.223Z,58.80
2022-10-12T15:18:21.788Z,59.29
2022-10-12T15:20:50.194Z,59.80
2022-10-12T15:23:19.837Z,59.72
2022-10-12T15:25:54.902Z,60.11
2022-10-12T15:28:24.669Z,60.42
2022-10-12T15:31:15.763Z,60.68
2022-10-12T15:33:45.812Z,61.47
2022-10-12T15:36:14.959Z,62.05
2022-10-12T15:38:43.719Z,62.37
2022-10-12T15:41:17.684Z,62.16
2022-10-12T15:43:46.137Z,62.90
2022-10-12T15:46:14.376Z,63.28
2022-10-12T15:48:44.046Z,63.38
2022-10-12T15:51:22.811Z,63.42
2022-10-12T15:53:51.619Z,64.25
2022-10-12T15:56:21.419Z,64.14
2022-10-12T15:58:49.863Z,64.54
2022-10-12T16:01:19.431Z,64.86
2022-10-12T16:03:48.172Z,65.12
2022-10-12T16:06:16.542Z,65.47
2022-10-12T16:08:44.703Z,65.55
2022-10-12T16:11:14.425Z,66.08
2022-10-12T16:13:51.079Z,66.45
2022-10-12T16:16:22.465Z,66.60
2022-10-12T16:18:51.512Z,66.94
2022-10-12T16:21:19.631Z,66.94
2022-10-12T16:23:47.849Z,67.14
2022-10-12T16:26:16.562Z,67.25
2022-10-12T16:28:46.062Z,67.49
2022-10-12T16:31:17.943Z,67.47
2022-10-12T16:33:46.517Z,67.74
2022-10-12T16:36:16.377Z,67.84
2022-10-12T16:38:44.948Z,68.16
2022-10-12T16:41:14.754Z,68.55
2022-10-12T16:43:44.540Z,68.79
2022-10-12T16:46:14.067Z,68.46
2022-10-12T16:48:42.144Z,68.82
2022-10-12T16:51:11.389Z,69.17
2022-10-12T16:53:42.263Z,69.49
2022-10-12T16:56:10.706Z,69.39
2022-10-12T16:58:38.898Z,69.69
2022-10-12T17:01:11.245Z,69.49
2022-10-12T17:03:41.155Z,69.97
2022-10-12T17:06:10.031Z,70.18
2022-10-12T17:08:39.339Z,70.44
2022-10-12T17:11:09.094Z,70.36
2022-10-12T17:13:41.522Z,70.53
2022-10-12T17:16:25.148Z,70.80
2022-10-12T17:18:59.162Z,70.69
2022-10-12T17:21:28.051Z,70.86
2022-10-12T17:23:57.534Z,70.90
2022-10-12T17:26:26.649Z,71.02
2022-10-12T17:28:55.252Z,71.17
2022-10-12T17:31:24.302Z,71.38
2022-10-12T17:33:52.878Z,71.40
2022-10-12T17:36:27.979Z,71.46
2022-10-12T17:38:58.633Z,71.74
2022-10-12T17:41:27.857Z,71.94
2022-10-12T17:43:56.979Z,71.83
2022-10-12T17:46:25.316Z,72.18
2022-10-12T17:48:53.898Z,72.55
2022-10-12T17:51:25.128Z,72.79
2022-10-12T17:53:53.914Z,73.07
2022-10-12T17:56:22.403Z,73.48
2022-10-12T17:58:55.769Z,72.79
2022-10-12T18:01:25.681Z,73.17
2022-10-12T18:03:55.489Z,73.53
2022-10-12T18:06:27.632Z,73.42
2022-10-12T18:08:58.014Z,73.32
2022-10-12T18:11:27.809Z,73.22
2022-10-12T18:13:57.725Z,73.15
2022-10-12T18:16:27.994Z,73.13
2022-10-12T18:18:58.017Z,73.41
2022-10-12T18:21:29.511Z,73.49
2022-10-12T18:23:58.027Z,73.87
2022-10-12T18:26:28.151Z,73.99
2022-10-12T18:28:57.939Z,74.42
2022-10-12T18:31:28.136Z,74.44
2022-10-12T18:33:58.851Z,74.31
2022-10-12T18:36:29.416Z,74.44
2022-10-12T18:39:02.024Z,74.56
2022-10-12T18:41:31.726Z,74.60
2022-10-12T18:44:02.478Z,74.60
2022-10-12T18:46:33.416Z,74.75
2022-10-12T18:49:05.213Z,74.96
2022-10-12T18:51:39.998Z,74.65
2022-10-12T18:54:13.296Z,74.32
2022-10-12T18:56:43.114Z,74.34
2022-10-12T18:59:13.571Z,74.35
2022-10-12T19:01:44.288Z,74.66
2022-10-12T19:04:13.947Z,74.60
2022-10-12T19:06:53.257Z,74.55
2022-10-12T19:09:26.109Z,74.34
2022-10-12T19:11:55.699Z,74.38
2022-10-12T19:14:25.898Z,75.12
2022-10-12T19:16:56.239Z,74.57
2022-10-12T19:19:25.658Z,74.68
2022-10-12T19:21:57.004Z,74.77
2022-10-12T19:24:28.922Z,75.14
2022-10-12T19:27:00.284Z,75.25
2022-10-12T19:29:30.178Z,75.25
2022-10-12T19:32:00.545Z,75.03
2022-10-12T19:34:30.108Z,75.42
2022-10-12T19:37:01.305Z,75.36
2022-10-12T19:39:32.681Z,75.51
2022-10-12T19:42:02.102Z,75.60
2022-10-12T19:44:31.578Z,75.66
2022-10-12T19:47:00.516Z,75.76
2022-10-12T19:49:34.382Z,75.81
2022-10-12T19:52:07.140Z,75.90
2022-10-12T19:54:36.724Z,75.95
2022-10-12T19:57:06.661Z,76.68
2022-10-12T19:59:35.781Z,76.79
2022-10-12T20:02:04.833Z,76.30
2022-10-12T20:04:34.403Z,76.51
2022-10-12T20:07:03.633Z,76.87
2022-10-12T20:09:34.642Z,76.63
2022-10-12T20:12:03.168Z,76.23
2022-10-12T20:14:31.491Z,76.01
2022-10-12T20:16:59.936Z,75.95
2022-10-12T20:19:28.255Z,76.15
2022-10-12T20:21:56.454Z,76.71
2022-10-12T20:24:24.700Z,76.90
2022-10-12T20:26:54.236Z,77.03
2022-10-12T20:29:22.271Z,76.97
2022-10-12T20:31:50.423Z,76.79
2022-10-12T20:34:18.518Z,77.18
2022-10-12T20:36:46.617Z,77.89
2022-10-12T20:39:14.685Z,77.42
2022-10-12T20:41:42.785Z,78.16
2022-10-12T20:44:12.460Z,78.32
2022-10-12T20:46:40.571Z,78.01
2022-10-12T20:49:08.661Z,78.18
2022-10-12T20:51:40.040Z,77.72
2022-10-12T20:54:09.250Z,77.69
2022-10-12T20:56:41.788Z,77.64
2022-10-12T20:59:10.616Z,78.63
2022-10-12T21:01:40.374Z,79.21
2022-10-12T21:04:10.189Z,78.85
2022-10-12T21:06:39.245Z,78.93
2022-10-12T21:09:07.402Z,79.29
2022-10-12T21:11:35.637Z,79.75
2022-10-12T21:14:03.724Z,80.18
2022-10-12T21:16:33.393Z,79.96
2022-10-12T21:19:02.782Z,80.19
2022-10-12T21:21:30.918Z,79.94
2022-10-12T21:24:00.453Z,79.75
2022-10-12T21:26:30.756Z,79.93
2022-10-12T21:29:00.574Z,80.37
2022-10-12T21:31:32.631Z,79.49
2022-10-12T21:34:03.351Z,78.69
2022-10-12T21:36:32.882Z,78.28
2022-10-12T21:39:00.993Z,77.56
2022-10-12T21:41:30.088Z,77.28
2022-10-12T21:43:59.120Z,77.04
2022-10-12T21:46:29.073Z,77.15
2022-10-12T21:48:57.552Z,77.58
2022-10-12T21:51:27.630Z,76.84
2022-10-12T21:53:55.775Z,76.57
2022-10-12T21:56:25.200Z,77.34
2022-10-12T21:58:54.842Z,76.79
2022-10-12T22:01:24.583Z,76.53
2022-10-12T22:03:54.430Z,76.50
2022-10-12T22:06:23.774Z,76.30
2022-10-12T22:08:55.990Z,75.99
2022-10-12T22:11:24.804Z,75.59
2022-10-12T22:13:53.056Z,75.15
2022-10-12T22:16:21.246Z,75.22
2022-10-12T22:18:49.300Z,75.56
2022-10-12T22:21:19.271Z,74.80
2022-10-12T22:23:47.762Z,74.15
2022-10-12T22:26:18.847Z,73.54
2022-10-12T22:28:54.397Z,74.57
2022-10-12T22:31:24.735Z,73.95
2022-10-12T22:33:53.152Z,73.39
2022-10-12T22:36:21.478Z,73.44
2022-10-12T22:38:49.511Z,74.23
2022-10-12T22:41:20.544Z,74.04
2022-10-12T22:43:49.337Z,73.90
2022-10-12T22:46:17.822Z,73.49
2022-10-12T22:48:45.912Z,74.05
2022-10-12T22:51:16.755Z,74.06
2022-10-12T22:53:44.877Z,73.76
2022-10-12T22:56:15.992Z,73.63
2022-10-12T22:58:48.030Z,73.65
2022-10-12T23:01:18.214Z,73.05
2022-10-12T23:03:46.351Z,72.80
2022-10-12T23:06:16.244Z,73.47
2022-10-12T23:08:44.628Z,73.04
2022-10-12T23:11:14.349Z,73.63
2022-10-12T23:13:43.619Z,73.84
2022-10-12T23:16:14.812Z,73.36
2022-10-12T23:18:43.097Z,72.77
2022-10-12T23:21:12.928Z,73.18
2022-10-12T23:23:42.097Z,72.78
2022-10-12T23:26:12.548Z,71.52
2022-10-12T23:28:41.021Z,71.70
2022-10-12T23:31:20.194Z,71.29
2022-10-12T23:33:48.671Z,71.61
2022-10-12T23:36:18.551Z,72.45
2022-10-12T23:38:46.831Z,72.94
2022-10-12T23:41:15.251Z,72.95
2022-10-12T23:43:43.518Z,73.79
2022-10-12T23:46:12.383Z,73.60
2022-10-12T23:48:42.088Z,72.67
2022-10-12T23:51:10.454Z,72.73
2022-10-12T23:53:39.368Z,72.83
2022-10-12T23:56:07.936Z,73.49
2022-10-12T23:58:36.270Z,73.50
